sensor_id;sensor_type;location;lat;lon;timestamp;pressure;altitude;pressure_sealevel;temperature;humidity
41947;BME280;27638;42.184;24.848;2023-05-22T00:00:34;99481.94;;;18.66;100.00
41947;BME280;27638;42.184;24.848;2023-05-22T00:03:00;99481.34;;;18.64;100.00
41947;BME280;27638;42.184;24.848;2023-05-22T00:05:27;99474.94;;;18.65;100.00
41947;BME280;27638;42.184;24.848;2023-05-22T00:07:53;99478.00;;;18.69;100.00
41947;BME280;27638;42.184;24.848;2023-05-22T00:10:18;99485.59;;;18.72;100.00
41947;BME280;27638;42.184;24.848;2023-05-22T00:12:44;99484.38;;;18.74;100.00
41947;BME280;27638;42.184;24.848;2023-05-22T00:15:10;99482.28;;;18.76;100.00
41947;BME280;27638;42.184;24.848;2023-05-22T00:17:35;99472.16;;;18.78;100.00
41947;BME280;27638;42.184;24.848;2023-05-22T00:20:02;99480.66;;;18.75;100.00
41947;BME280;27638;42.184;24.848;2023-05-22T00:22:31;99479.41;;;18.71;100.00
41947;BME280;27638;42.184;24.848;2023-05-22T00:25:02;99486.28;;;18.61;100.00
41947;BME280;27638;42.184;24.848;2023-05-22T00:27:28;99481.78;;;18.61;100.00
41947;BME280;27638;42.184;24.848;2023-05-22T00:29:53;99480.75;;;18.62;100.00
41947;BME280;27638;42.184;24.848;2023-05-22T00:32:19;99471.25;;;18.60;100.00
41947;BME280;27638;42.184;24.848;2023-05-22T00:34:44;99487.41;;;18.53;100.00
41947;BME280;27638;42.184;24.848;2023-05-22T00:37:10;99488.22;;;18.54;100.00
41947;BME280;27638;42.184;24.848;2023-05-22T00:39:35;99489.69;;;18.49;100.00
41947;BME280;27638;42.184;24.848;2023-05-22T00:42:01;99490.47;;;18.32;100.00
41947;BME280;27638;42.184;24.848;2023-05-22T00:44:26;99489.59;;;18.38;100.00
41947;BME280;27638;42.184;24.848;2023-05-22T00:46:52;99489.88;;;18.30;100.00
41947;BME280;27638;42.184;24.848;2023-05-22T00:49:17;99495.06;;;18.25;100.00
41947;BME280;27638;42.184;24.848;2023-05-22T00:51:43;99492.31;;;18.31;100.00
41947;BME280;27638;42.184;24.848;2023-05-22T00:54:09;99493.50;;;18.10;100.00
41947;BME280;27638;42.184;24.848;2023-05-22T00:56:35;99485.78;;;17.96;100.00
41947;BME280;27638;42.184;24.848;2023-05-22T00:59:01;99482.84;;;18.04;100.00
41947;BME280;27638;42.184;24.848;2023-05-22T01:01:27;99490.63;;;18.12;100.00
41947;BME280;27638;42.184;24.848;2023-05-22T01:03:58;99485.16;;;18.25;100.00
41947;BME280;27638;42.184;24.848;2023-05-22T01:06:26;99484.50;;;18.30;100.00
41947;BME280;27638;42.184;24.848;2023-05-22T01:08:52;99488.88;;;18.24;100.00
41947;BME280;27638;42.184;24.848;2023-05-22T01:11:27;99478.84;;;18.13;100.00
41947;BME280;27638;42.184;24.848;2023-05-22T01:14:04;99489.97;;;18.16;100.00
41947;BME280;27638;42.184;24.848;2023-05-22T01:16:40;99485.59;;;18.22;100.00
41947;BME280;27638;42.184;24.848;2023-05-22T01:22:06;99488.66;;;17.94;100.00
41947;BME280;27638;42.184;24.848;2023-05-22T01:27:38;99477.88;;;18.07;100.00
41947;BME280;27638;42.184;24.848;2023-05-22T01:33:05;99478.81;;;18.19;100.00
41947;BME280;27638;42.184;24.848;2023-05-22T01:35:33;99476.91;;;18.27;100.00
41947;BME280;27638;42.184;24.848;2023-05-22T01:37:59;99479.97;;;18.30;100.00
41947;BME280;27638;42.184;24.848;2023-05-22T01:40:27;99479.09;;;18.36;100.00
41947;BME280;27638;42.184;24.848;2023-05-22T01:42:53;99475.38;;;18.37;100.00
41947;BME280;27638;42.184;24.848;2023-05-22T01:45:20;99479.69;;;18.38;100.00
41947;BME280;27638;42.184;24.848;2023-05-22T01:47:45;99472.31;;;18.34;100.00
41947;BME280;27638;42.184;24.848;2023-05-22T01:50:11;99469.84;;;18.32;100.00
41947;BME280;27638;42.184;24.848;2023-05-22T01:53:35;99469.63;;;18.34;100.00
41947;BME280;27638;42.184;24.848;2023-05-22T01:55:41;99477.38;;;18.42;100.00
41947;BME280;27638;42.184;24.848;2023-05-22T02:00:37;99486.63;;;18.46;99.45
41947;BME280;27638;42.184;24.848;2023-05-22T02:03:07;99474.31;;;18.38;100.00
41947;BME280;27638;42.184;24.848;2023-05-22T02:05:37;99484.38;;;18.43;100.00
41947;BME280;27638;42.184;24.848;2023-05-22T02:08:04;99477.81;;;18.39;100.00
41947;BME280;27638;42.184;24.848;2023-05-22T02:10:32;99474.75;;;18.35;100.00
41947;BME280;27638;42.184;24.848;2023-05-22T02:12:58;99485.53;;;18.29;100.00
41947;BME280;27638;42.184;24.848;2023-05-22T02:15:24;99483.44;;;18.06;100.00
41947;BME280;27638;42.184;24.848;2023-05-22T02:17:49;99493.72;;;18.09;100.00
41947;BME280;27638;42.184;24.848;2023-05-22T02:20:17;99483.56;;;18.17;100.00
41947;BME280;27638;42.184;24.848;2023-05-22T02:22:44;99482.69;;;18.24;100.00
41947;BME280;27638;42.184;24.848;2023-05-22T02:25:11;99490.13;;;18.22;100.00
41947;BME280;27638;42.184;24.848;2023-05-22T02:27:43;99487.06;;;18.18;100.00
41947;BME280;27638;42.184;24.848;2023-05-22T02:30:09;99481.06;;;18.23;100.00
41947;BME280;27638;42.184;24.848;2023-05-22T02:32:35;99484.16;;;18.19;100.00
41947;BME280;27638;42.184;24.848;2023-05-22T02:35:01;99488.88;;;18.24;100.00
41947;BME280;27638;42.184;24.848;2023-05-22T02:37:27;99488.81;;;18.31;100.00
41947;BME280;27638;42.184;24.848;2023-05-22T02:39:52;99484.88;;;18.33;100.00
41947;BME280;27638;42.184;24.848;2023-05-22T02:42:18;99487.34;;;18.35;100.00
41947;BME280;27638;42.184;24.848;2023-05-22T02:44:43;99485.28;;;18.37;100.00
41947;BME280;27638;42.184;24.848;2023-05-22T02:47:09;99480.34;;;18.34;100.00
41947;BME280;27638;42.184;24.848;2023-05-22T02:49:34;99481.75;;;18.36;100.00
41947;BME280;27638;42.184;24.848;2023-05-22T02:52:00;99480.94;;;18.36;100.00
41947;BME280;27638;42.184;24.848;2023-05-22T02:54:25;99475.38;;;18.37;100.00
41947;BME280;27638;42.184;24.848;2023-05-22T02:56:51;99481.59;;;18.31;100.00
41947;BME280;27638;42.184;24.848;2023-05-22T02:59:16;99485.53;;;18.29;100.00
41947;BME280;27638;42.184;24.848;2023-05-22T03:01:41;99484.06;;;18.33;100.00
41947;BME280;27638;42.184;24.848;2023-05-22T03:04:08;99488.16;;;18.35;100.00
41947;BME280;27638;42.184;24.848;2023-05-22T03:06:34;99483.03;;;18.34;100.00
41947;BME280;27638;42.184;24.848;2023-05-22T03:09:01;99476.63;;;18.35;100.00
41947;BME280;27638;42.184;24.848;2023-05-22T03:11:29;99486.69;;;18.39;100.00
41947;BME280;27638;42.184;24.848;2023-05-22T03:13:54;99480.28;;;18.40;100.00
41947;BME280;27638;42.184;24.848;2023-05-22T03:16:20;99481.53;;;18.38;100.00
41947;BME280;27638;42.184;24.848;2023-05-22T03:18:46;99479.91;;;18.37;100.00
41947;BME280;27638;42.184;24.848;2023-05-22T03:21:11;99487.94;;;18.37;100.00
41947;BME280;27638;42.184;24.848;2023-05-22T03:23:37;99479.97;;;18.30;100.00
41947;BME280;27638;42.184;24.848;2023-05-22T03:26:02;99477.56;;;18.22;100.00
41947;BME280;27638;42.184;24.848;2023-05-22T03:28:27;99482.03;;;18.28;100.00
41947;BME280;27638;42.184;24.848;2023-05-22T03:30:53;99486.34;;;18.29;100.00
41947;BME280;27638;42.184;24.848;2023-05-22T03:33:18;99483.03;;;18.34;100.00
41947;BME280;27638;42.184;24.848;2023-05-22T03:35:44;99479.53;;;18.33;100.00
41947;BME280;27638;42.184;24.848;2023-05-22T03:38:09;99479.31;;;18.35;100.00
41947;BME280;27638;42.184;24.848;2023-05-22T03:40:35;99484.00;;;18.39;100.00
41947;BME280;27638;42.184;24.848;2023-05-22T03:43:00;99482.75;;;18.42;100.00
41947;BME280;27638;42.184;24.848;2023-05-22T03:45:26;99489.75;;;18.43;99.98
41947;BME280;27638;42.184;24.848;2023-05-22T03:47:51;99479.63;;;18.45;99.77
41947;BME280;27638;42.184;24.848;2023-05-22T03:50:16;99484.38;;;18.43;100.00
41947;BME280;27638;42.184;24.848;2023-05-22T03:52:42;99492.22;;;18.44;100.00
41947;BME280;27638;42.184;24.848;2023-05-22T03:55:07;99493.19;;;18.50;100.00
41947;BME280;27638;42.184;24.848;2023-05-22T03:57:33;99497.31;;;18.52;99.88
41947;BME280;27638;42.184;24.848;2023-05-22T03:59:58;99500.75;;;18.60;99.60
41947;BME280;27638;42.184;24.848;2023-05-22T04:02:31;99490.22;;;18.65;99.82
41947;BME280;27638;42.184;24.848;2023-05-22T04:04:56;99489.16;;;18.66;99.34
41947;BME280;27638;42.184;24.848;2023-05-22T04:07:22;99484.84;;;18.65;99.31
41947;BME280;27638;42.184;24.848;2023-05-22T04:09:47;99485.88;;;18.64;98.72
41947;BME280;27638;42.184;24.848;2023-05-22T04:12:12;99485.28;;;18.62;98.79
41947;BME280;27638;42.184;24.848;2023-05-22T04:14:38;99475.16;;;18.64;99.16
41947;BME280;27638;42.184;24.848;2023-05-22T04:17:03;99484.84;;;18.65;98.34
41947;BME280;27638;42.184;24.848;2023-05-22T04:19:29;99483.84;;;18.59;98.70
41947;BME280;27638;42.184;24.848;2023-05-22T04:21:56;99487.34;;;18.60;98.89
41947;BME280;27638;42.184;24.848;2023-05-22T04:24:22;99498.06;;;18.60;98.37
41947;BME280;27638;42.184;24.848;2023-05-22T04:26:48;99492.09;;;18.58;98.25
41947;BME280;27638;42.184;24.848;2023-05-22T04:29:14;99491.94;;;18.52;98.70
41947;BME280;27638;42.184;24.848;2023-05-22T04:31:41;99497.69;;;18.56;99.36
41947;BME280;27638;42.184;24.848;2023-05-22T04:34:11;99491.72;;;18.54;99.32
41947;BME280;27638;42.184;24.848;2023-05-22T04:36:39;99494.84;;;18.51;99.92
41947;BME280;27638;42.184;24.848;2023-05-22T04:39:05;99495.44;;;18.53;99.40
41947;BME280;27638;42.184;24.848;2023-05-22T04:41:31;99501.63;;;18.54;99.88
41947;BME280;27638;42.184;24.848;2023-05-22T04:43:56;99492.31;;;18.56;100.00
41947;BME280;27638;42.184;24.848;2023-05-22T04:46:22;99491.47;;;18.62;100.00
41947;BME280;27638;42.184;24.848;2023-05-22T04:48:48;99492.31;;;18.56;100.00
41947;BME280;27638;42.184;24.848;2023-05-22T04:51:13;99496.84;;;18.62;100.00
41947;BME280;27638;42.184;24.848;2023-05-22T04:53:39;99493.13;;;18.63;100.00
41947;BME280;27638;42.184;24.848;2023-05-22T04:56:05;99501.19;;;18.57;100.00
41947;BME280;27638;42.184;24.848;2023-05-22T04:58:31;99499.97;;;18.52;100.00
41947;BME280;27638;42.184;24.848;2023-05-22T05:00:56;99503.31;;;18.48;100.00
41947;BME280;27638;42.184;24.848;2023-05-22T05:03:22;99505.41;;;18.46;99.86
41947;BME280;27638;42.184;24.848;2023-05-22T05:05:50;99510.97;;;18.44;99.45
41947;BME280;27638;42.184;24.848;2023-05-22T05:08:15;99516.78;;;18.41;99.80
41947;BME280;27638;42.184;24.848;2023-05-22T05:10:41;99510.59;;;18.41;99.80
41947;BME280;27638;42.184;24.848;2023-05-22T05:13:06;99509.13;;;18.45;100.00
41947;BME280;27638;42.184;24.848;2023-05-22T05:15:32;99510.09;;;18.50;100.00
41947;BME280;27638;42.184;24.848;2023-05-22T05:17:57;99506.75;;;18.55;100.00
41947;BME280;27638;42.184;24.848;2023-05-22T05:20:23;99509.19;;;18.63;99.97
41947;BME280;27638;42.184;24.848;2023-05-22T05:22:48;99514.78;;;18.62;99.46
41947;BME280;27638;42.184;24.848;2023-05-22T05:25:15;99513.69;;;18.69;98.51
41947;BME280;27638;42.184;24.848;2023-05-22T05:27:40;99515.28;;;18.77;96.48
41947;BME280;27638;42.184;24.848;2023-05-22T05:30:06;99517.59;;;18.73;97.44
41947;BME280;27638;42.184;24.848;2023-05-22T05:32:32;99517.09;;;18.83;97.31
41947;BME280;27638;42.184;24.848;2023-05-22T05:34:58;99523.22;;;18.90;96.87
41947;BME280;27638;42.184;24.848;2023-05-22T05:37:23;99523.78;;;18.74;96.47
41947;BME280;27638;42.184;24.848;2023-05-22T05:39:49;99516.28;;;18.83;96.12
41947;BME280;27638;42.184;24.848;2023-05-22T05:42:14;99529.41;;;18.91;95.40
41947;BME280;27638;42.184;24.848;2023-05-22T05:44:41;99528.06;;;19.00;95.88
41947;BME280;27638;42.184;24.848;2023-05-22T05:47:06;99532.31;;;18.89;93.43
41947;BME280;27638;42.184;24.848;2023-05-22T05:49:32;99531.88;;;18.92;94.51
41947;BME280;27638;42.184;24.848;2023-05-22T05:51:57;99530.69;;;19.43;92.21
41947;BME280;27638;42.184;24.848;2023-05-22T05:54:23;99532.44;;;19.56;90.53
41947;BME280;27638;42.184;24.848;2023-05-22T05:56:50;99540.56;;;19.67;89.63
41947;BME280;27638;42.184;24.848;2023-05-22T05:59:17;99540.97;;;20.01;88.72
41947;BME280;27638;42.184;24.848;2023-05-22T06:01:44;99548.88;;;20.26;84.75
41947;BME280;27638;42.184;24.848;2023-05-22T06:04:13;99552.88;;;20.35;82.01
41947;BME280;27638;42.184;24.848;2023-05-22T06:06:38;99550.00;;;20.48;78.64
41947;BME280;27638;42.184;24.848;2023-05-22T06:09:05;99541.50;;;20.63;79.40
41947;BME280;27638;42.184;24.848;2023-05-22T06:11:31;99557.69;;;20.86;78.40
41947;BME280;27638;42.184;24.848;2023-05-22T06:13:57;99556.97;;;21.14;76.90
41947;BME280;27638;42.184;24.848;2023-05-22T06:16:24;99570.09;;;21.11;74.66
41947;BME280;27638;42.184;24.848;2023-05-22T06:18:49;99563.69;;;21.23;74.47
41947;BME280;27638;42.184;24.848;2023-05-22T06:21:17;99563.84;;;21.57;75.08
41947;BME280;27638;42.184;24.848;2023-05-22T06:23:45;99557.34;;;21.93;73.60
41947;BME280;27638;42.184;24.848;2023-05-22T06:26:11;99559.16;;;22.33;72.94
41947;BME280;27638;42.184;24.848;2023-05-22T06:28:36;99556.75;;;22.65;71.49
41947;BME280;27638;42.184;24.848;2023-05-22T06:31:01;99561.44;;;22.86;69.97
41947;BME280;27638;42.184;24.848;2023-05-22T06:33:27;99559.97;;;22.95;65.07
41947;BME280;27638;42.184;24.848;2023-05-22T06:35:52;99547.78;;;22.92;65.63
41947;BME280;27638;42.184;24.848;2023-05-22T06:38:18;99558.41;;;22.99;65.49
41947;BME280;27638;42.184;24.848;2023-05-22T06:40:43;99546.03;;;23.20;63.64
41947;BME280;27638;42.184;24.848;2023-05-22T06:43:08;99550.13;;;23.44;61.69
41947;BME280;27638;42.184;24.848;2023-05-22T06:45:34;99553.44;;;23.68;60.36
41947;BME280;27638;42.184;24.848;2023-05-22T06:48:01;99548.66;;;23.97;57.31
41947;BME280;27638;42.184;24.848;2023-05-22T06:50:27;99551.00;;;24.15;55.20
41947;BME280;27638;42.184;24.848;2023-05-22T06:52:52;99554.25;;;24.17;53.88
41947;BME280;27638;42.184;24.848;2023-05-22T06:55:17;99564.72;;;23.87;54.19
41947;BME280;27638;42.184;24.848;2023-05-22T06:57:43;99559.91;;;23.67;52.09
41947;BME280;27638;42.184;24.848;2023-05-22T07:00:09;99557.47;;;23.49;54.84
41947;BME280;27638;42.184;24.848;2023-05-22T07:02:37;99557.59;;;23.37;55.50
41947;BME280;27638;42.184;24.848;2023-05-22T07:05:02;99562.38;;;23.30;55.13
41947;BME280;27638;42.184;24.848;2023-05-22T07:07:28;99556.47;;;23.33;55.37
41947;BME280;27638;42.184;24.848;2023-05-22T07:09:53;99551.44;;;23.42;56.18
41947;BME280;27638;42.184;24.848;2023-05-22T07:12:20;99558.47;;;23.43;55.67
41947;BME280;27638;42.184;24.848;2023-05-22T07:14:50;99554.63;;;23.55;54.10
41947;BME280;27638;42.184;24.848;2023-05-22T07:17:15;99557.19;;;23.67;51.96
41947;BME280;27638;42.184;24.848;2023-05-22T07:19:41;99553.66;;;23.88;51.76
41947;BME280;27638;42.184;24.848;2023-05-22T07:22:06;99551.97;;;24.04;51.72
41947;BME280;27638;42.184;24.848;2023-05-22T07:24:32;99551.34;;;24.24;52.46
41947;BME280;27638;42.184;24.848;2023-05-22T07:26:57;99558.31;;;24.42;51.31
41947;BME280;27638;42.184;24.848;2023-05-22T07:29:22;99565.75;;;24.57;49.73
41947;BME280;27638;42.184;24.848;2023-05-22T07:31:48;99565.22;;;24.60;51.75
41947;BME280;27638;42.184;24.848;2023-05-22T07:34:13;99562.81;;;24.63;49.80
41947;BME280;27638;42.184;24.848;2023-05-22T07:36:39;99557.13;;;24.60;49.89
41947;BME280;27638;42.184;24.848;2023-05-22T07:39:04;99566.13;;;24.70;49.52
41947;BME280;27638;42.184;24.848;2023-05-22T07:41:30;99553.03;;;24.57;51.12
41947;BME280;27638;42.184;24.848;2023-05-22T07:43:56;99554.53;;;24.43;50.62
41947;BME280;27638;42.184;24.848;2023-05-22T07:46:21;99563.63;;;24.32;51.37
41947;BME280;27638;42.184;24.848;2023-05-22T07:48:47;99556.97;;;24.17;52.70
41947;BME280;27638;42.184;24.848;2023-05-22T07:51:12;99555.09;;;24.18;52.68
41947;BME280;27638;42.184;24.848;2023-05-22T07:53:38;99559.94;;;24.16;51.41
41947;BME280;27638;42.184;24.848;2023-05-22T07:56:03;99555.28;;;24.11;53.29
41947;BME280;27638;42.184;24.848;2023-05-22T07:58:29;99560.75;;;23.51;51.60
41947;BME280;27638;42.184;24.848;2023-05-22T08:00:54;99556.91;;;23.47;52.83
41947;BME280;27638;42.184;24.848;2023-05-22T08:03:20;99559.78;;;23.79;52.92
41947;BME280;27638;42.184;24.848;2023-05-22T08:05:45;99553.75;;;24.20;52.50
41947;BME280;27638;42.184;24.848;2023-05-22T08:08:11;99562.09;;;24.73;50.82
41947;BME280;27638;42.184;24.848;2023-05-22T08:10:36;99557.81;;;25.09;46.89
41947;BME280;27638;42.184;24.848;2023-05-22T08:13:02;99553.06;;;25.31;46.17
41947;BME280;27638;42.184;24.848;2023-05-22T08:15:31;99557.72;;;25.41;47.35
41947;BME280;27638;42.184;24.848;2023-05-22T08:17:56;99550.72;;;25.55;46.70
41947;BME280;27638;42.184;24.848;2023-05-22T08:20:22;99549.53;;;25.88;45.30
41947;BME280;27638;42.184;24.848;2023-05-22T08:22:47;99549.31;;;26.05;42.00
41947;BME280;27638;42.184;24.848;2023-05-22T08:25:13;99551.97;;;25.95;41.59
41947;BME280;27638;42.184;24.848;2023-05-22T08:27:38;99552.78;;;25.90;41.41
41947;BME280;27638;42.184;24.848;2023-05-22T08:30:04;99559.00;;;25.86;43.05
41947;BME280;27638;42.184;24.848;2023-05-22T08:32:29;99554.66;;;25.80;44.36
41947;BME280;27638;42.184;24.848;2023-05-22T08:34:55;99550.75;;;25.60;43.87
41947;BME280;27638;42.184;24.848;2023-05-22T08:37:20;99557.50;;;25.53;45.95
41947;BME280;27638;42.184;24.848;2023-05-22T08:39:46;99550.03;;;25.23;45.83
41947;BME280;27638;42.184;24.848;2023-05-22T08:42:12;99552.59;;;25.50;45.49
41947;BME280;27638;42.184;24.848;2023-05-22T08:44:38;99556.25;;;25.75;45.58
41947;BME280;27638;42.184;24.848;2023-05-22T08:47:03;99555.44;;;25.75;45.06
41947;BME280;27638;42.184;24.848;2023-05-22T08:49:34;99548.44;;;25.94;43.44
41947;BME280;27638;42.184;24.848;2023-05-22T08:52:06;99557.31;;;25.69;44.69
41947;BME280;27638;42.184;24.848;2023-05-22T08:54:35;99547.16;;;25.44;44.70
41947;BME280;27638;42.184;24.848;2023-05-22T08:57:04;99544.72;;;25.48;43.56
41947;BME280;27638;42.184;24.848;2023-05-22T08:59:30;99543.47;;;25.66;44.15
41947;BME280;27638;42.184;24.848;2023-05-22T09:01:56;99543.00;;;25.89;44.84
41947;BME280;27638;42.184;24.848;2023-05-22T09:04:23;99542.22;;;25.94;44.34
41947;BME280;27638;42.184;24.848;2023-05-22T09:06:48;99542.03;;;26.21;43.52
41947;BME280;27638;42.184;24.848;2023-05-22T09:09:14;99532.56;;;26.38;44.96
41947;BME280;27638;42.184;24.848;2023-05-22T09:11:40;99534.75;;;26.57;45.50
41947;BME280;27638;42.184;24.848;2023-05-22T09:14:06;99542.13;;;25.68;46.02
41947;BME280;27638;42.184;24.848;2023-05-22T09:16:32;99543.22;;;24.83;47.50
41947;BME280;27638;42.184;24.848;2023-05-22T09:18:58;99538.03;;;25.08;46.58
41947;BME280;27638;42.184;24.848;2023-05-22T09:21:26;99529.50;;;25.37;48.47
41947;BME280;27638;42.184;24.848;2023-05-22T09:23:53;99532.56;;;25.56;46.71
41947;BME280;27638;42.184;24.848;2023-05-22T09:26:26;99524.97;;;25.53;46.43
41947;BME280;27638;42.184;24.848;2023-05-22T09:28:52;99516.41;;;25.76;46.06
41947;BME280;27638;42.184;24.848;2023-05-22T09:31:17;99518.84;;;25.83;45.73
41947;BME280;27638;42.184;24.848;2023-05-22T09:33:43;99524.16;;;25.52;46.99
41947;BME280;27638;42.184;24.848;2023-05-22T09:36:09;99527.84;;;25.31;46.45
41947;BME280;27638;42.184;24.848;2023-05-22T09:38:35;99515.88;;;25.22;50.98
41947;BME280;27638;42.184;24.848;2023-05-22T09:41:00;99520.31;;;25.43;48.15
41947;BME280;27638;42.184;24.848;2023-05-22T09:43:26;99515.66;;;25.28;46.24
41947;BME280;27638;42.184;24.848;2023-05-22T09:46:01;99513.81;;;25.44;46.36
41947;BME280;27638;42.184;24.848;2023-05-22T09:48:28;99518.13;;;25.40;45.99
41947;BME280;27638;42.184;24.848;2023-05-22T09:50:59;99521.19;;;25.01;41.23
41947;BME280;27638;42.184;24.848;2023-05-22T09:53:26;99522.00;;;25.02;42.69
41947;BME280;27638;42.184;24.848;2023-05-22T09:55:54;99514.16;;;25.05;41.90
41947;BME280;27638;42.184;24.848;2023-05-22T09:58:23;99517.72;;;25.11;45.90
41947;BME280;27638;42.184;24.848;2023-05-22T10:00:50;99513.72;;;25.24;44.62
41947;BME280;27638;42.184;24.848;2023-05-22T10:03:21;99510.25;;;25.33;43.62
41947;BME280;27638;42.184;24.848;2023-05-22T10:05:49;99511.09;;;25.39;43.85
41947;BME280;27638;42.184;24.848;2023-05-22T10:08:24;99506.53;;;25.55;44.74
41947;BME280;27638;42.184;24.848;2023-05-22T10:10:52;99501.63;;;25.46;44.08
41947;BME280;27638;42.184;24.848;2023-05-22T10:13:17;99515.56;;;25.13;38.69
41947;BME280;27638;42.184;24.848;2023-05-22T10:15:46;99489.03;;;24.14;39.83
41947;BME280;27638;42.184;24.848;2023-05-22T10:18:13;99505.69;;;24.28;38.66
41947;BME280;27638;42.184;24.848;2023-05-22T10:20:39;99494.25;;;24.52;42.22
41947;BME280;27638;42.184;24.848;2023-05-22T10:23:06;99497.16;;;24.78;44.96
41947;BME280;27638;42.184;24.848;2023-05-22T10:25:34;99495.19;;;25.00;43.01
41947;BME280;27638;42.184;24.848;2023-05-22T10:28:03;99492.81;;;25.14;43.35
41947;BME280;27638;42.184;24.848;2023-05-22T10:30:57;99484.72;;;25.24;42.61
41947;BME280;27638;42.184;24.848;2023-05-22T10:33:39;99485.84;;;25.28;42.99
41947;BME280;27638;42.184;24.848;2023-05-22T10:39:36;99491.59;;;25.47;43.47
41947;BME280;27638;42.184;24.848;2023-05-22T10:42:04;99492.34;;;25.27;45.18
41947;BME280;27638;42.184;24.848;2023-05-22T10:44:32;99493.63;;;24.77;45.02
41947;BME280;27638;42.184;24.848;2023-05-22T10:46:57;99490.25;;;24.60;44.16
41947;BME280;27638;42.184;24.848;2023-05-22T10:49:34;99478.78;;;24.85;44.94
41947;BME280;27638;42.184;24.848;2023-05-22T10:52:01;99479.22;;;25.04;43.34
41947;BME280;27638;42.184;24.848;2023-05-22T10:54:41;99471.09;;;25.04;45.98
41947;BME280;27638;42.184;24.848;2023-05-22T10:57:15;99462.75;;;25.21;42.72
41947;BME280;27638;42.184;24.848;2023-05-22T10:59:41;99456.06;;;25.38;43.19
41947;BME280;27638;42.184;24.848;2023-05-22T11:02:20;99450.66;;;25.43;41.17
41947;BME280;27638;42.184;24.848;2023-05-22T11:04:47;99445.78;;;25.51;42.23
41947;BME280;27638;42.184;24.848;2023-05-22T11:07:13;99450.84;;;25.22;40.01
41947;BME280;27638;42.184;24.848;2023-05-22T11:09:46;99448.78;;;24.97;40.32
41947;BME280;27638;42.184;24.848;2023-05-22T11:12:27;99463.88;;;24.82;41.97
41947;BME280;27638;42.184;24.848;2023-05-22T11:15:01;99450.50;;;24.66;39.29
41947;BME280;27638;42.184;24.848;2023-05-22T11:17:31;99456.72;;;24.66;38.83
41947;BME280;27638;42.184;24.848;2023-05-22T11:22:39;99465.06;;;24.60;40.12
41947;BME280;27638;42.184;24.848;2023-05-22T11:25:10;99479.38;;;24.55;38.13
41947;BME280;27638;42.184;24.848;2023-05-22T11:27:36;99513.81;;;23.35;54.06
41947;BME280;27638;42.184;24.848;2023-05-22T11:30:04;99517.81;;;21.98;72.89
41947;BME280;27638;42.184;24.848;2023-05-22T11:32:29;99520.81;;;20.75;89.36
41947;BME280;27638;42.184;24.848;2023-05-22T11:34:58;99538.31;;;19.64;98.46
41947;BME280;27638;42.184;24.848;2023-05-22T11:37:23;99554.41;;;19.09;100.00
41947;BME280;27638;42.184;24.848;2023-05-22T11:40:02;99553.69;;;18.71;100.00
41947;BME280;27638;42.184;24.848;2023-05-22T11:42:28;99550.03;;;18.65;100.00
41947;BME280;27638;42.184;24.848;2023-05-22T11:44:55;99541.91;;;18.78;100.00
41947;BME280;27638;42.184;24.848;2023-05-22T11:47:20;99529.72;;;19.01;100.00
41947;BME280;27638;42.184;24.848;2023-05-22T11:49:46;99521.22;;;19.04;100.00
41947;BME280;27638;42.184;24.848;2023-05-22T11:52:11;99512.34;;;19.03;100.00
41947;BME280;27638;42.184;24.848;2023-05-22T11:54:37;99505.19;;;19.34;100.00
41947;BME280;27638;42.184;24.848;2023-05-22T11:57:06;99497.34;;;19.51;100.00
41947;BME280;27638;42.184;24.848;2023-05-22T11:59:32;99500.13;;;19.44;100.00
41947;BME280;27638;42.184;24.848;2023-05-22T12:01:58;99501.69;;;19.52;99.92
41947;BME280;27638;42.184;24.848;2023-05-22T12:04:24;99505.34;;;19.57;100.00
41947;BME280;27638;42.184;24.848;2023-05-22T12:06:50;99506.13;;;19.76;100.00
41947;BME280;27638;42.184;24.848;2023-05-22T12:09:15;99514.31;;;19.99;100.00
41947;BME280;27638;42.184;24.848;2023-05-22T12:11:48;99498.56;;;20.03;100.00
41947;BME280;27638;42.184;24.848;2023-05-22T12:14:13;99500.69;;;20.13;100.00
41947;BME280;27638;42.184;24.848;2023-05-22T12:16:39;99494.84;;;20.16;100.00
41947;BME280;27638;42.184;24.848;2023-05-22T12:19:08;99491.25;;;20.22;100.00
41947;BME280;27638;42.184;24.848;2023-05-22T12:21:34;99488.41;;;20.17;98.88
41947;BME280;27638;42.184;24.848;2023-05-22T12:24:04;99482.47;;;20.26;100.00
41947;BME280;27638;42.184;24.848;2023-05-22T12:26:33;99484.38;;;20.37;100.00
41947;BME280;27638;42.184;24.848;2023-05-22T12:28:58;99488.50;;;20.52;100.00
41947;BME280;27638;42.184;24.848;2023-05-22T12:31:24;99482.19;;;20.58;99.56
41947;BME280;27638;42.184;24.848;2023-05-22T12:33:56;99482.56;;;20.85;100.00
41947;BME280;27638;42.184;24.848;2023-05-22T12:36:39;99489.94;;;21.01;100.00
41947;BME280;27638;42.184;24.848;2023-05-22T12:39:15;99482.56;;;20.96;98.66
41947;BME280;27638;42.184;24.848;2023-05-22T12:41:40;99476.00;;;21.04;100.00
41947;BME280;27638;42.184;24.848;2023-05-22T12:44:06;99484.09;;;20.81;92.13
41947;BME280;27638;42.184;24.848;2023-05-22T12:46:33;99489.25;;;20.82;91.19
41947;BME280;27638;42.184;24.848;2023-05-22T12:49:01;99493.00;;;20.81;97.24
41947;BME280;27638;42.184;24.848;2023-05-22T12:51:28;99478.81;;;20.74;93.16
41947;BME280;27638;42.184;24.848;2023-05-22T12:53:58;99485.34;;;20.78;94.83
41947;BME280;27638;42.184;24.848;2023-05-22T12:56:24;99487.59;;;20.93;96.61
41947;BME280;27638;42.184;24.848;2023-05-22T12:58:50;99478.66;;;21.16;95.00
41947;BME280;27638;42.184;24.848;2023-05-22T13:01:15;99473.50;;;21.38;93.04